Cascade, MT

4:34 AM MST on December 29, 2014 (GMT -0700)
Great Falls International | Change Station
CLOSE
Current Station
Airport
Location: Great Falls,
Elevation: 3658 ft
Nearby Weather Stations

Elev 3658 ft 47.47 °N, 111.38 °W | Updated 21 minutes ago

Snow
Snow
1 °F
Feels Like -14 °F
N
9
Wind Variable Wind from NNW

Today
High -- | Low -- °F
--% Chance of Precip.
Yesterday
High -- | Low -- °F
Precip. -- in
8:13 AM 4:44 PM
First Quarter, 58% visible
Pressure 30.50 in
Visibility 3.0 miles
Clouds Scattered Clouds 2500 ft
Overcast 4200 ft
Windchill -14 °F
Dew Point -2 °F
Humidity 85%
Rainfall 0.04 in
Snow Depth Not available.
UV 0 out of 12
Pollen .10 out of 12
Air Quality Not available.
Flu Activity Not available.
SPECI KGTF 291113Z 34008KT 3SM -SN BR SCT025 OVC042 M17/M19 A3050 RMK AO2 P0000 $

More Conditions Fewer Conditions

Pressure 30.50 in
Visibility 3.0 miles
Clouds Scattered Clouds 2500 ft
Overcast 4200 ft
Windchill -14 °F
Dew Point -2 °F
Humidity 85%
Rainfall 0.04 in
Snow Depth Not available.
UV 0 out of 12
Pollen .10 out of 12
Air Quality Not available.
Flu Activity Not available.
SPECI KGTF 291113Z 34008KT 3SM -SN BR SCT025 OVC042 M17/M19 A3050 RMK AO2 P0000 $

More Conditions Fewer Conditions

10-Day Weather Forecast

Almanac

Astronomy

Dec. 29, 2014 Rise Set
Actual Time
Civil Twilight
Nautical Twilight
Astronomical Twilight
Moon
Length of Visible Light
Length of Day
Tomorrow will be .
, % of the Moon is Illuminated

Today's Extremes

State Highs State Lows

Community

WunderPhotos

Upload Photos

1,781,570 photos uploaded!

WunderBlogs® & News

Nearby

Air Quality

  Air Quality AQ Index Pollutant
Not available.

Snow Depth

Station Depth Elevation

Earthquake Activity

City Distance Mag. Time & Date
Minimum magnitude displayed is 2.5.

Coastal Water Temperatures

Place Temperature

Nearby Weather Stations